createdAt,value
2022-07-31T00:00:13.277Z,3.83
2022-07-31T00:02:40.127Z,3.57
2022-07-31T00:05:07.354Z,3.80
2022-07-31T00:07:34.507Z,4.50
2022-07-31T00:10:01.390Z,4.50
2022-07-31T00:12:28.302Z,4.53
2022-07-31T00:14:55.267Z,3.67
2022-07-31T00:17:22.280Z,3.20
2022-07-31T00:19:49.230Z,6.23
2022-07-31T00:22:16.164Z,5.30
2022-07-31T00:24:42.983Z,3.73
2022-07-31T00:27:10.968Z,4.67
2022-07-31T00:29:38.679Z,3.80
2022-07-31T00:32:06.136Z,4.40
2022-07-31T00:34:33.270Z,4.17
2022-07-31T00:37:00.270Z,5.07
2022-07-31T00:39:27.350Z,4.87
2022-07-31T00:41:55.125Z,4.10
2022-07-31T00:44:22.045Z,5.10
2022-07-31T00:46:50.085Z,9.00
2022-07-31T00:49:17.274Z,5.37
2022-07-31T00:51:44.313Z,4.50
2022-07-31T00:54:18.673Z,2.90
2022-07-31T00:56:50.760Z,5.07
2022-07-31T00:59:24.257Z,3.20
2022-07-31T01:01:51.999Z,2.73
2022-07-31T01:04:19.643Z,3.30
2022-07-31T01:06:47.746Z,3.43
2022-07-31T01:09:15.345Z,5.77
2022-07-31T01:11:50.982Z,3.33
2022-07-31T01:14:21.617Z,6.13
2022-07-31T01:16:51.562Z,2.57
2022-07-31T01:19:43.647Z,4.50
2022-07-31T01:22:48.189Z,3.63
2022-07-31T01:25:33.916Z,2.93
2022-07-31T01:28:06.656Z,3.70
2022-07-31T01:34:03.936Z,2.93
2022-07-31T01:36:35.269Z,3.27
2022-07-31T01:39:03.821Z,7.30
2022-07-31T01:41:36.268Z,3.67
2022-07-31T01:44:05.440Z,7.07
2022-07-31T01:46:37.438Z,4.10
2022-07-31T01:49:09.985Z,4.33
2022-07-31T01:51:39.315Z,3.43
2022-07-31T01:54:06.734Z,7.53
2022-07-31T01:56:35.419Z,4.80
2022-07-31T01:59:04.114Z,5.83
2022-07-31T02:01:32.629Z,3.53
2022-07-31T02:04:03.022Z,5.63
2022-07-31T02:06:30.374Z,3.33
2022-07-31T02:08:58.644Z,4.10
2022-07-31T02:11:25.668Z,3.83
2022-07-31T02:13:53.489Z,4.97
2022-07-31T02:16:21.325Z,4.73
2022-07-31T02:18:51.052Z,3.00
2022-07-31T02:21:18.400Z,6.33
2022-07-31T02:23:45.373Z,5.70
2022-07-31T02:26:13.298Z,3.97
2022-07-31T02:28:43.809Z,2.80
2022-07-31T02:31:13.167Z,3.53
2022-07-31T02:33:42.585Z,3.57
2022-07-31T02:36:11.672Z,2.80
2022-07-31T02:38:40.342Z,4.73
2022-07-31T02:41:09.739Z,3.90
2022-07-31T02:43:37.697Z,5.20
2022-07-31T02:46:05.969Z,3.37
2022-07-31T02:48:33.264Z,5.70
2022-07-31T02:51:00.533Z,3.00
2022-07-31T02:53:27.533Z,6.10
2022-07-31T02:55:54.979Z,3.00
2022-07-31T02:58:21.937Z,3.20
2022-07-31T03:00:57.966Z,4.70
2022-07-31T03:03:24.911Z,3.03
2022-07-31T03:05:52.612Z,4.40
2022-07-31T03:08:19.532Z,14.97
2022-07-31T03:10:47.284Z,3.87
2022-07-31T03:13:15.976Z,3.93
2022-07-31T03:15:50.766Z,24.27
2022-07-31T03:18:21.919Z,4.23
2022-07-31T03:20:52.973Z,5.47
2022-07-31T03:23:26.269Z,5.97
2022-07-31T03:25:54.313Z,6.20
2022-07-31T03:28:22.138Z,4.50
2022-07-31T03:30:55.256Z,4.50
2022-07-31T03:33:23.771Z,4.67
2022-07-31T03:35:50.952Z,7.67
2022-07-31T03:38:42.174Z,4.23
2022-07-31T03:41:05.213Z,8.43
2022-07-31T03:43:47.484Z,6.47
2022-07-31T03:46:18.969Z,5.57
2022-07-31T03:48:46.773Z,5.20
2022-07-31T03:51:14.402Z,5.73
2022-07-31T03:53:42.503Z,4.80
2022-07-31T03:56:11.574Z,3.80
2022-07-31T03:58:39.034Z,4.57
2022-07-31T04:01:08.933Z,4.47
2022-07-31T04:03:39.454Z,4.67
2022-07-31T04:06:06.571Z,4.23
2022-07-31T04:08:34.096Z,4.43
2022-07-31T04:11:01.028Z,22.17
2022-07-31T04:13:28.522Z,19.37
2022-07-31T04:15:55.437Z,10.47
2022-07-31T04:18:22.353Z,3.93
2022-07-31T04:20:49.178Z,5.07
2022-07-31T04:23:16.767Z,4.97
2022-07-31T04:25:43.660Z,5.40
2022-07-31T04:28:10.613Z,4.90
2022-07-31T04:30:38.315Z,6.77
2022-07-31T04:33:05.339Z,5.70
2022-07-31T04:35:32.331Z,4.83
2022-07-31T04:37:59.352Z,5.23
2022-07-31T04:40:27.553Z,6.67
2022-07-31T04:42:55.166Z,5.10
2022-07-31T04:45:22.093Z,4.23
2022-07-31T04:47:49.109Z,4.20
2022-07-31T04:50:16.317Z,6.73
2022-07-31T04:52:43.236Z,4.87
2022-07-31T04:55:10.460Z,4.57
2022-07-31T04:57:37.327Z,6.10
2022-07-31T05:00:10.439Z,4.00
2022-07-31T05:02:37.671Z,4.90
2022-07-31T05:05:04.918Z,8.13
2022-07-31T05:07:31.922Z,3.60
2022-07-31T05:09:58.934Z,3.93
2022-07-31T05:12:26.203Z,5.30
2022-07-31T05:14:53.638Z,6.40
2022-07-31T05:17:20.723Z,4.07
2022-07-31T05:19:47.742Z,4.23
2022-07-31T05:22:14.692Z,5.33
2022-07-31T05:24:43.129Z,4.83
2022-07-31T05:27:10.320Z,4.37
2022-07-31T05:29:37.546Z,4.83
2022-07-31T05:32:05.183Z,6.87
2022-07-31T05:34:32.162Z,5.07
2022-07-31T05:37:01.546Z,6.77
2022-07-31T05:39:29.646Z,4.23
2022-07-31T05:41:56.624Z,5.37
2022-07-31T05:44:24.753Z,5.05
2022-07-31T05:49:18.314Z,5.17
2022-07-31T05:51:46.726Z,6.37
2022-07-31T05:54:14.163Z,4.03
2022-07-31T05:56:41.047Z,3.73
2022-07-31T05:59:07.882Z,3.60
2022-07-31T06:01:34.791Z,5.67
2022-07-31T06:04:02.706Z,4.83
2022-07-31T06:06:29.714Z,5.27
2022-07-31T06:09:01.869Z,5.68
2022-07-31T06:11:31.109Z,4.38
2022-07-31T06:13:58.480Z,4.60
2022-07-31T06:16:25.322Z,7.68
2022-07-31T06:18:52.607Z,8.23
2022-07-31T06:23:45.261Z,4.45
2022-07-31T06:26:12.642Z,4.43
2022-07-31T06:28:48.545Z,4.55
2022-07-31T06:31:22.884Z,3.83
2022-07-31T06:33:50.980Z,4.72
2022-07-31T06:36:18.783Z,5.25
2022-07-31T06:38:46.153Z,4.18
2022-07-31T06:41:33.204Z,4.20
2022-07-31T06:44:00.144Z,4.35
2022-07-31T06:46:27.301Z,7.80
2022-07-31T06:48:54.239Z,4.65
2022-07-31T06:51:30.735Z,3.75
2022-07-31T06:54:00.122Z,4.57
2022-07-31T06:56:27.019Z,4.60
2022-07-31T06:58:55.211Z,4.35
2022-07-31T07:01:22.278Z,4.90
2022-07-31T07:03:49.183Z,5.25
2022-07-31T07:06:16.177Z,7.10
2022-07-31T07:08:43.228Z,6.40
2022-07-31T07:11:20.439Z,4.75
2022-07-31T07:13:48.002Z,3.97
2022-07-31T07:16:21.183Z,3.08
2022-07-31T07:18:48.145Z,3.05
2022-07-31T07:21:15.130Z,6.68
2022-07-31T07:23:42.257Z,4.30
2022-07-31T07:26:09.584Z,5.60
2022-07-31T07:28:36.801Z,4.63
2022-07-31T07:31:04.763Z,5.85
2022-07-31T07:33:39.490Z,8.15
2022-07-31T07:36:23.426Z,5.38
2022-07-31T07:38:55.070Z,7.15
2022-07-31T07:41:26.606Z,7.93
2022-07-31T07:43:53.735Z,7.28
2022-07-31T07:46:24.386Z,7.65
2022-07-31T07:48:51.770Z,8.90
2022-07-31T07:51:19.938Z,6.78
2022-07-31T07:53:47.281Z,7.03
2022-07-31T07:56:14.327Z,9.13
2022-07-31T07:58:41.271Z,8.25
2022-07-31T08:01:08.325Z,13.55
2022-07-31T08:03:51.275Z,9.20
2022-07-31T08:06:22.638Z,17.15
2022-07-31T08:08:49.664Z,11.90
2022-07-31T08:11:17.993Z,11.35
2022-07-31T08:13:50.734Z,9.27
2022-07-31T08:16:20.365Z,9.65
2022-07-31T08:18:47.923Z,8.85
2022-07-31T08:21:15.029Z,8.32
2022-07-31T08:23:42.298Z,9.30
2022-07-31T08:26:09.348Z,10.88
2022-07-31T08:28:36.754Z,7.43
2022-07-31T08:31:04.113Z,6.60
2022-07-31T08:33:33.154Z,6.80
2022-07-31T08:36:00.899Z,7.35
2022-07-31T08:38:28.834Z,6.32
2022-07-31T08:40:55.753Z,8.15
2022-07-31T08:43:59.987Z,5.68
2022-07-31T08:46:10.633Z,9.10
2022-07-31T08:48:40.564Z,9.95
2022-07-31T08:51:10.749Z,9.70
2022-07-31T08:53:39.812Z,6.75
2022-07-31T08:56:09.412Z,10.85
2022-07-31T08:58:39.567Z,7.90
2022-07-31T09:01:08.725Z,9.18
2022-07-31T09:03:36.382Z,8.98
2022-07-31T09:06:05.159Z,10.80
2022-07-31T09:08:34.614Z,10.52
2022-07-31T09:11:06.684Z,12.43
2022-07-31T09:13:37.650Z,13.57
2022-07-31T09:16:05.129Z,14.73
2022-07-31T09:18:32.582Z,10.90
2022-07-31T09:21:02.316Z,9.32
2022-07-31T09:23:30.927Z,11.20
2022-07-31T09:26:05.956Z,10.77
2022-07-31T09:28:37.666Z,13.00
2022-07-31T09:31:06.934Z,21.27
2022-07-31T09:33:34.090Z,13.30
2022-07-31T09:36:01.139Z,13.93
2022-07-31T09:38:33.463Z,13.20
2022-07-31T09:41:55.607Z,13.07
2022-07-31T09:44:10.209Z,12.70
2022-07-31T09:46:48.402Z,14.73
2022-07-31T09:56:49.826Z,12.63
2022-07-31T09:59:17.317Z,13.88
2022-07-31T10:01:48.867Z,12.20
2022-07-31T10:04:22.547Z,15.25
2022-07-31T10:06:51.763Z,12.20
2022-07-31T10:09:20.353Z,15.07
2022-07-31T10:11:49.779Z,15.65
2022-07-31T10:14:27.277Z,14.73
2022-07-31T10:16:59.066Z,16.25
2022-07-31T10:19:28.242Z,19.63
2022-07-31T10:21:59.793Z,15.57
2022-07-31T10:24:28.810Z,13.85
2022-07-31T10:27:09.204Z,12.85
2022-07-31T10:29:37.494Z,17.10
2022-07-31T10:32:05.605Z,14.15
2022-07-31T10:34:34.940Z,16.00
2022-07-31T10:37:30.358Z,14.93
2022-07-31T10:40:12.943Z,11.07
2022-07-31T10:42:45.797Z,10.23
2022-07-31T10:45:14.421Z,13.27
2022-07-31T10:47:48.763Z,14.45
2022-07-31T10:50:24.599Z,10.00
2022-07-31T10:52:51.987Z,11.50
2022-07-31T10:55:22.744Z,11.50
2022-07-31T10:57:56.539Z,8.80
2022-07-31T11:00:30.002Z,11.55
2022-07-31T11:03:11.986Z,8.88
2022-07-31T11:06:01.545Z,12.85
2022-07-31T11:08:26.459Z,11.32
2022-07-31T11:10:57.025Z,9.25
2022-07-31T11:13:33.672Z,9.48
2022-07-31T11:16:05.751Z,8.63
2022-07-31T11:18:34.557Z,8.43
2022-07-31T11:21:17.807Z,10.75
2022-07-31T11:23:56.052Z,8.10
2022-07-31T11:26:33.348Z,6.85
2022-07-31T11:29:59.506Z,6.70
2022-07-31T11:32:12.398Z,8.05
2022-07-31T11:34:50.540Z,8.55
2022-07-31T11:37:25.756Z,6.72
2022-07-31T11:39:54.989Z,5.13
2022-07-31T11:42:26.309Z,6.50
2022-07-31T11:45:11.037Z,6.75
2022-07-31T11:48:11.349Z,6.68
2022-07-31T11:50:31.344Z,6.18
2022-07-31T11:53:04.548Z,7.22
2022-07-31T11:55:31.950Z,5.70
2022-07-31T11:57:58.828Z,4.70
2022-07-31T12:00:29.750Z,5.90
2022-07-31T12:02:58.155Z,4.93
2022-07-31T12:05:39.065Z,6.07
2022-07-31T12:08:08.177Z,6.35
2022-07-31T12:10:35.553Z,4.53
2022-07-31T12:13:03.003Z,5.85
2022-07-31T12:15:30.080Z,4.25
2022-07-31T12:18:02.232Z,4.70
2022-07-31T12:20:35.813Z,5.28
2022-07-31T12:23:05.930Z,4.95
2022-07-31T12:25:43.420Z,6.35
2022-07-31T12:28:13.029Z,3.90
2022-07-31T12:30:40.406Z,4.72
2022-07-31T12:33:09.289Z,5.18
2022-07-31T12:35:55.669Z,6.85
2022-07-31T12:38:40.734Z,6.85
2022-07-31T12:41:13.671Z,7.22
2022-07-31T12:43:50.083Z,5.75
2022-07-31T12:46:18.097Z,5.57
2022-07-31T12:48:46.234Z,6.90
2022-07-31T12:51:13.441Z,6.57
2022-07-31T12:53:40.526Z,6.32
2022-07-31T12:56:12.417Z,7.90
2022-07-31T12:58:39.383Z,7.22
2022-07-31T13:01:06.196Z,7.40
2022-07-31T13:03:45.446Z,8.25
2022-07-31T13:06:14.119Z,8.27
2022-07-31T13:08:43.864Z,7.72
2022-07-31T13:11:11.078Z,7.60
2022-07-31T13:13:38.023Z,8.80
2022-07-31T13:16:05.118Z,7.57
2022-07-31T13:18:32.750Z,10.20
2022-07-31T13:21:00.609Z,7.55
2022-07-31T13:23:27.598Z,6.50
2022-07-31T13:25:54.882Z,8.02
2022-07-31T13:28:21.788Z,8.18
2022-07-31T13:30:54.666Z,8.02
2022-07-31T13:33:22.007Z,7.25
2022-07-31T13:35:48.946Z,9.45
2022-07-31T13:38:15.835Z,7.75
2022-07-31T13:43:17.385Z,8.80
2022-07-31T13:45:44.553Z,7.18
2022-07-31T13:48:11.523Z,7.30
2022-07-31T13:50:42.672Z,6.28
2022-07-31T13:53:10.325Z,8.25
2022-07-31T13:55:37.965Z,7.22
2022-07-31T13:58:05.473Z,8.52
2022-07-31T14:14:04.697Z,4.70
2022-07-31T14:16:36.352Z,6.03
2022-07-31T14:19:04.534Z,6.75
2022-07-31T14:21:50.051Z,4.95
2022-07-31T14:24:37.448Z,4.80
2022-07-31T14:27:05.649Z,6.03
2022-07-31T14:29:36.024Z,5.13
2022-07-31T14:35:10.579Z,4.80
2022-07-31T14:37:37.845Z,5.05
2022-07-31T14:40:06.388Z,4.40
2022-07-31T14:42:33.478Z,5.50
2022-07-31T14:45:02.896Z,4.72
2022-07-31T14:47:31.371Z,5.13
2022-07-31T14:50:06.923Z,6.40
2022-07-31T14:52:37.118Z,4.72
2022-07-31T14:55:04.271Z,4.30
2022-07-31T14:57:31.659Z,3.90
2022-07-31T14:59:58.944Z,4.15
2022-07-31T15:02:26.362Z,6.05
2022-07-31T15:04:53.621Z,4.55
2022-07-31T15:07:39.801Z,6.13
2022-07-31T15:10:09.878Z,3.97
2022-07-31T15:12:36.872Z,4.25
2022-07-31T15:15:04.259Z,5.22
2022-07-31T15:17:31.326Z,5.30
2022-07-31T15:19:58.242Z,6.15
2022-07-31T15:22:25.237Z,3.83
2022-07-31T15:24:52.167Z,5.80
2022-07-31T15:27:20.924Z,4.88
2022-07-31T15:30:04.666Z,9.95
2022-07-31T15:32:36.211Z,4.20
2022-07-31T15:35:04.530Z,5.00
2022-07-31T15:37:35.090Z,4.28
2022-07-31T15:40:04.671Z,3.90
2022-07-31T15:42:33.018Z,5.80
2022-07-31T15:44:59.984Z,5.18
2022-07-31T15:47:27.007Z,6.07
2022-07-31T15:49:54.208Z,6.20
2022-07-31T15:52:21.300Z,4.55
2022-07-31T15:54:51.791Z,4.07
2022-07-31T15:57:22.379Z,9.43
2022-07-31T15:59:50.083Z,18.02
2022-07-31T16:02:17.279Z,11.27
2022-07-31T16:04:51.534Z,4.68
2022-07-31T16:08:29.416Z,6.25
2022-07-31T16:10:15.366Z,4.22
2022-07-31T16:12:47.731Z,4.80
2022-07-31T16:15:16.602Z,5.63
2022-07-31T16:17:47.935Z,5.70
2022-07-31T16:20:27.164Z,4.55
2022-07-31T16:22:57.029Z,3.90
2022-07-31T16:25:25.208Z,6.90
2022-07-31T16:27:52.683Z,4.43
2022-07-31T16:30:19.976Z,11.38
2022-07-31T16:32:46.945Z,20.50
2022-07-31T16:35:13.860Z,10.10
2022-07-31T16:37:52.686Z,11.48
2022-07-31T16:40:28.296Z,11.38
2022-07-31T16:42:56.484Z,11.30
2022-07-31T16:45:23.527Z,10.20
2022-07-31T16:47:50.901Z,9.10
2022-07-31T16:50:19.974Z,8.25
2022-07-31T16:52:51.288Z,8.07
2022-07-31T16:55:21.548Z,11.27
2022-07-31T16:58:11.283Z,8.60
2022-07-31T17:01:53.929Z,7.32
2022-07-31T17:04:21.223Z,9.00
2022-07-31T17:06:48.471Z,9.00
2022-07-31T17:09:18.365Z,9.02
2022-07-31T17:11:54.030Z,8.30
2022-07-31T17:14:23.404Z,10.70
2022-07-31T17:16:52.293Z,11.48
2022-07-31T17:19:35.845Z,10.38
2022-07-31T17:22:04.552Z,12.00
2022-07-31T17:24:31.931Z,10.77
2022-07-31T17:26:59.801Z,9.65
2022-07-31T17:29:32.470Z,8.88
2022-07-31T17:31:59.389Z,8.93
2022-07-31T17:34:40.087Z,9.85
2022-07-31T17:37:10.233Z,7.28
2022-07-31T17:39:37.231Z,8.90
2022-07-31T17:42:04.438Z,8.10
2022-07-31T17:44:31.337Z,6.72
2022-07-31T17:46:58.763Z,7.15
2022-07-31T17:49:28.197Z,7.95
2022-07-31T17:51:58.809Z,7.90
2022-07-31T17:54:29.026Z,6.93
2022-07-31T17:56:56.137Z,8.90
2022-07-31T17:59:23.395Z,7.57
2022-07-31T18:01:52.328Z,8.15
2022-07-31T18:04:26.275Z,19.38
2022-07-31T18:07:12.260Z,14.40
2022-07-31T18:09:39.841Z,8.20
2022-07-31T18:12:11.012Z,8.63
2022-07-31T18:14:40.470Z,8.00
2022-07-31T18:17:07.461Z,10.53
2022-07-31T18:19:34.419Z,7.95
2022-07-31T18:22:01.582Z,9.27
2022-07-31T18:24:28.800Z,7.37
2022-07-31T18:26:55.816Z,6.83
2022-07-31T18:29:22.730Z,7.28
2022-07-31T18:31:49.740Z,7.63
2022-07-31T18:34:17.173Z,7.40
2022-07-31T18:36:44.823Z,7.25
2022-07-31T18:39:12.111Z,6.32
2022-07-31T18:41:39.118Z,5.60
2022-07-31T18:44:06.201Z,6.07
2022-07-31T18:46:48.914Z,5.07
2022-07-31T18:50:58.661Z,5.33
2022-07-31T18:52:04.448Z,5.73
2022-07-31T18:54:31.825Z,5.27
2022-07-31T18:56:59.445Z,5.27
2022-07-31T18:59:26.556Z,4.50
2022-07-31T19:01:53.768Z,4.97
2022-07-31T19:04:22.631Z,5.40
2022-07-31T19:06:54.242Z,5.40
2022-07-31T19:09:22.965Z,5.70
2022-07-31T19:11:58.784Z,6.20
2022-07-31T19:14:29.884Z,6.00
2022-07-31T19:17:21.607Z,6.17
2022-07-31T19:19:54.416Z,6.77
2022-07-31T19:22:27.695Z,7.07
2022-07-31T19:24:54.737Z,7.10
2022-07-31T19:27:22.004Z,9.07
2022-07-31T19:30:10.151Z,7.47
2022-07-31T19:32:38.277Z,7.93
2022-07-31T19:35:11.489Z,7.60
2022-07-31T19:37:38.386Z,8.07
2022-07-31T19:40:06.468Z,8.93
2022-07-31T19:42:33.414Z,9.07
2022-07-31T19:45:00.416Z,9.60
2022-07-31T19:47:27.457Z,10.50
2022-07-31T19:49:54.377Z,9.47
2022-07-31T19:52:21.290Z,9.20
2022-07-31T19:54:48.255Z,10.77
2022-07-31T19:57:15.281Z,10.10
2022-07-31T19:59:43.259Z,9.17
2022-07-31T20:02:14.001Z,9.13
2022-07-31T20:04:47.691Z,9.87
2022-07-31T20:07:40.315Z,10.30
2022-07-31T20:10:09.975Z,12.40
2022-07-31T20:12:39.603Z,9.40
2022-07-31T20:15:08.446Z,10.20
2022-07-31T20:17:36.179Z,10.40
2022-07-31T20:20:15.642Z,14.07
2022-07-31T20:22:43.230Z,11.17
2022-07-31T20:25:19.511Z,12.00
2022-07-31T20:27:47.786Z,10.60
2022-07-31T20:30:14.739Z,10.53
2022-07-31T20:32:48.676Z,9.77
2022-07-31T20:35:29.111Z,10.60
2022-07-31T20:38:02.876Z,10.50
2022-07-31T20:40:29.973Z,12.83
2022-07-31T20:42:56.900Z,12.37
2022-07-31T20:45:24.489Z,11.20
2022-07-31T20:47:56.741Z,11.33
2022-07-31T20:50:26.845Z,11.37
2022-07-31T20:52:53.794Z,11.70
2022-07-31T20:55:20.706Z,13.03
2022-07-31T20:57:47.728Z,11.70
2022-07-31T21:00:17.520Z,10.70
2022-07-31T21:02:46.576Z,11.90
2022-07-31T21:05:27.143Z,11.73
2022-07-31T21:07:56.570Z,10.73
2022-07-31T21:10:28.195Z,10.27
2022-07-31T21:12:56.486Z,9.90
2022-07-31T21:15:42.716Z,11.33
2022-07-31T21:18:18.206Z,11.53
2022-07-31T21:20:52.211Z,11.57
2022-07-31T21:23:25.237Z,11.10
2022-07-31T21:25:53.613Z,11.47
2022-07-31T21:28:22.109Z,10.80
2022-07-31T21:30:49.756Z,12.27
2022-07-31T21:33:18.379Z,13.27
2022-07-31T21:35:46.568Z,11.83
2022-07-31T21:38:16.157Z,13.37
2022-07-31T21:40:44.497Z,12.37
2022-07-31T21:43:15.458Z,13.07
2022-07-31T21:45:55.430Z,11.40
2022-07-31T21:48:24.941Z,12.33
2022-07-31T21:50:52.599Z,13.17
2022-07-31T21:53:19.677Z,13.00
2022-07-31T21:55:46.709Z,14.03
2022-07-31T21:58:13.614Z,14.90
2022-07-31T22:00:40.557Z,14.97
2022-07-31T22:03:07.836Z,12.20
2022-07-31T22:05:53.257Z,10.63
2022-07-31T22:08:21.128Z,10.63
2022-07-31T22:10:51.296Z,11.53
2022-07-31T22:13:19.615Z,11.57
2022-07-31T22:15:58.200Z,14.00
2022-07-31T22:18:34.300Z,10.97
2022-07-31T22:21:03.610Z,13.03
2022-07-31T22:23:30.848Z,13.13
2022-07-31T22:25:58.160Z,13.03
2022-07-31T22:28:26.978Z,12.63
2022-07-31T22:30:55.532Z,13.47
2022-07-31T22:33:23.148Z,11.97
2022-07-31T22:35:58.723Z,12.20
2022-07-31T22:38:29.173Z,12.47
2022-07-31T22:40:56.344Z,12.17
2022-07-31T22:44:11.457Z,12.80
2022-07-31T22:46:12.207Z,13.77
2022-07-31T22:48:41.020Z,15.57
2022-07-31T22:51:09.053Z,12.67
2022-07-31T22:53:37.794Z,18.13
2022-07-31T22:56:04.792Z,13.60
2022-07-31T22:58:31.669Z,14.67
2022-07-31T23:00:58.515Z,13.50
2022-07-31T23:03:25.457Z,14.37
2022-07-31T23:06:27.985Z,17.30
2022-07-31T23:08:40.502Z,16.87
2022-07-31T23:11:07.526Z,14.03
2022-07-31T23:13:34.349Z,17.57
2022-07-31T23:16:01.177Z,14.33
2022-07-31T23:18:28.072Z,16.13
2022-07-31T23:20:54.996Z,16.20
2022-07-31T23:23:21.881Z,16.67
2022-07-31T23:25:48.738Z,15.53
2022-07-31T23:28:15.707Z,20.03
2022-07-31T23:30:42.654Z,15.57
2022-07-31T23:33:09.486Z,18.90
2022-07-31T23:35:36.435Z,16.23
2022-07-31T23:38:03.393Z,15.73
2022-07-31T23:40:30.429Z,14.87
2022-07-31T23:42:57.273Z,14.07
2022-07-31T23:45:24.124Z,15.73
2022-07-31T23:47:51.157Z,16.20
2022-07-31T23:50:18.426Z,15.00
2022-07-31T23:52:45.833Z,15.00
2022-07-31T23:55:13.361Z,13.57
2022-07-31T23:57:40.732Z,10.80
